Accueil
METAR-TAF:

METAR-TAF

Aéroports :

Hahn, Allemagne

Aéroport de Francfort-Hahn

latitude: 49-57N, longitude: 007-16E, altitude: 491 m

Observation

Le bulletin a été fait il y a 42 minutes, à 16:50 UTC
Vent 7 kt de sud-est
Température 14°C
Humidité 72%
Pression 1020 hPa
Visibilité 10 km ou plus
pas de nuages en-dessous de 1500 mètres et pas de cumulonimbus.

METAR: EDFH 211650Z 13007KT CAVOK 14/09 Q1020

Heure: 19:32 (17:32 UTC)

Prévision

Le bulletin a été fait il y a 6 heures et 32 minutes, à 11:00 UTC
Prévision valable du 21 à 12 UTC au 22 à 12 UTC
Vent 6 kt de sud/sud-est
Visibilité 10 km ou plus
Quelques nuages à une hauteur de 3000 ft
Probabilité 30% :
Temporairement
du 22 à 06 UTC au 22 à 09 UTC
Visibilité: 0800 m
Nuages fragmentés à une hauteur de 300 ft
brouillard

TAF: EDFH 211100Z 2112/2212 15006KT 9999 FEW030 PROB30 TEMPO 2206/2209 0800 FG BKN003

Observations et prévisions météorologiques de plus de 4000 aéroports (messages METAR et TAF).

Les stations disponibles sont représentées par des disques jaunes et rouges sur la carte.

Passer la souris dessus pour voir le nom de la station.

Cliquer dessus pour voir les observations et prévisions météorologiques.

Pour changer de carte: cliquez sur les boutons verts avec une croix noire pour zoomer, sur le bouton vert avec un tiret pour effectuer un zoom arrière, ou sur les flèches vertes pour les cartes adjacentes.


METAR-TAF: